Little Falls, Minnesota
Current Conditions -  °F | °C
As of 1:57 PM on Thursday 30 Oct 2014 (Local Time) from KLXL Reporting Station
Overcast Overcast  
Wind Chill: 37°   Ceiling: 1300
Heat Index: 41°   Visibility: 10mi
Dew Point: 34°   Wind: 6mph
Humidity: 76%   Direction: 330°NNW
Pressure: 30.15"   Gusts: NA
Location:  45.98°N, 94.37°W
Report Text: KLXL 301857Z AUTO 33005KT 10SM OVC013 05/01 A3015 RMK AO2
Loading
Personal Weather Stations






























Interactive Weather Map
Tropical Storm Tracking
New forecast layout! Learn more

10-Day Weather Forecast

Advertisements
Track Severe Weather on mobile